createdAt,value
2023-04-03T00:00:13.252Z,3.10
2023-04-03T00:02:43.128Z,3.10
2023-04-03T00:05:12.310Z,3.10
2023-04-03T00:07:41.102Z,3.10
2023-04-03T00:10:12.122Z,3.10
2023-04-03T00:12:42.202Z,3.10
2023-04-03T00:15:11.559Z,3.10
2023-04-03T00:17:40.675Z,3.10
2023-04-03T00:20:11.473Z,3.10
2023-04-03T00:22:40.240Z,3.00
2023-04-03T00:25:10.702Z,3.10
2023-04-03T00:27:43.096Z,3.00
2023-04-03T00:30:17.043Z,3.00
2023-04-03T00:32:46.327Z,3.00
2023-04-03T00:35:16.840Z,3.00
2023-04-03T00:37:45.462Z,3.00
2023-04-03T00:40:17.158Z,3.00
2023-04-03T00:42:49.791Z,3.00
2023-04-03T00:45:34.598Z,3.00
2023-04-03T00:48:06.747Z,3.00
2023-04-03T00:50:39.918Z,2.90
2023-04-03T00:53:11.853Z,2.90
2023-04-03T00:55:41.299Z,3.00
2023-04-03T00:58:12.775Z,3.00
2023-04-03T01:00:49.494Z,3.00
2023-04-03T01:03:17.860Z,3.00
2023-04-03T01:05:48.374Z,3.00
2023-04-03T01:08:16.903Z,3.00
2023-04-03T01:10:46.046Z,3.00
2023-04-03T01:13:27.715Z,3.10
2023-04-03T01:15:56.639Z,3.10
2023-04-03T01:18:27.335Z,3.20
2023-04-03T01:21:37.192Z,3.30
2023-04-03T01:24:26.368Z,3.30
2023-04-03T01:26:56.705Z,3.40
2023-04-03T01:29:27.290Z,3.40
2023-04-03T01:31:59.674Z,3.50
2023-04-03T01:34:31.018Z,3.50
2023-04-03T01:37:02.482Z,3.60
2023-04-03T01:39:33.757Z,3.70
2023-04-03T01:42:02.971Z,3.70
2023-04-03T01:44:36.714Z,3.70
2023-04-03T01:47:09.156Z,3.80
2023-04-03T01:49:40.040Z,3.80
2023-04-03T01:52:09.123Z,3.80
2023-04-03T01:54:37.870Z,3.80
2023-04-03T01:57:06.761Z,3.90
2023-04-03T01:59:35.667Z,3.90
2023-04-03T02:02:05.857Z,3.90
2023-04-03T02:04:35.050Z,3.90
2023-04-03T02:07:03.605Z,4.00
2023-04-03T02:09:32.608Z,4.00
2023-04-03T02:12:01.422Z,4.00
2023-04-03T02:14:31.091Z,4.00
2023-04-03T02:17:00.344Z,4.00
2023-04-03T02:19:30.897Z,4.10
2023-04-03T02:21:59.770Z,4.10
2023-04-03T02:24:28.794Z,4.10
2023-04-03T02:26:57.293Z,4.10
2023-04-03T02:29:26.907Z,4.10
2023-04-03T02:31:56.569Z,4.10
2023-04-03T02:34:28.525Z,4.20
2023-04-03T02:37:00.403Z,4.20
2023-04-03T02:39:29.455Z,4.20
2023-04-03T02:42:01.204Z,4.20
2023-04-03T02:44:31.033Z,4.20
2023-04-03T02:47:08.977Z,4.20
2023-04-03T02:49:37.467Z,4.20
2023-04-03T02:52:11.089Z,4.20
2023-04-03T02:54:40.987Z,4.20
2023-04-03T02:57:15.984Z,4.20
2023-04-03T02:59:45.323Z,4.30
2023-04-03T03:02:16.032Z,4.30
2023-04-03T03:04:46.131Z,4.30
2023-04-03T03:07:18.499Z,4.20
2023-04-03T03:09:50.284Z,4.20
2023-04-03T03:12:22.881Z,4.30
2023-04-03T03:14:55.425Z,4.30
2023-04-03T03:17:24.313Z,4.30
2023-04-03T03:19:53.370Z,4.30
2023-04-03T03:22:23.346Z,4.30
2023-04-03T03:24:52.989Z,4.30
2023-04-03T03:27:22.153Z,4.30
2023-04-03T03:29:52.744Z,4.30
2023-04-03T03:32:23.357Z,4.30
2023-04-03T03:34:54.718Z,4.30
2023-04-03T03:37:26.644Z,4.30
2023-04-03T03:39:55.522Z,4.30
2023-04-03T03:42:24.572Z,4.30
2023-04-03T03:44:53.539Z,4.30
2023-04-03T03:47:24.117Z,4.30
2023-04-03T03:49:52.798Z,4.30
2023-04-03T03:52:21.901Z,4.30
2023-04-03T03:54:53.110Z,4.30
2023-04-03T03:57:24.050Z,4.20
2023-04-03T03:59:54.092Z,4.20
2023-04-03T04:02:23.453Z,4.20
2023-04-03T04:04:52.857Z,4.20
2023-04-03T04:07:22.151Z,4.20
2023-04-03T04:09:52.922Z,4.20
2023-04-03T04:12:25.486Z,4.20
2023-04-03T04:14:57.104Z,4.20
2023-04-03T04:17:28.402Z,4.30
2023-04-03T04:19:58.156Z,4.30
2023-04-03T04:22:27.390Z,4.30
2023-04-03T04:24:58.192Z,4.30
2023-04-03T04:27:27.964Z,4.30
2023-04-03T04:29:59.426Z,4.40
2023-04-03T04:32:29.596Z,4.40
2023-04-03T04:34:58.942Z,4.40
2023-04-03T04:37:29.834Z,4.40
2023-04-03T04:40:04.205Z,4.30
2023-04-03T04:42:33.128Z,4.30
2023-04-03T04:45:01.795Z,4.20
2023-04-03T04:47:31.984Z,4.20
2023-04-03T04:50:00.498Z,4.10
2023-04-03T04:52:30.981Z,4.10
2023-04-03T04:55:03.827Z,4.10
2023-04-03T04:57:34.202Z,4.10
2023-04-03T05:00:03.097Z,4.00
2023-04-03T05:02:33.130Z,4.00
2023-04-03T05:05:04.406Z,4.00
2023-04-03T05:07:36.736Z,3.90
2023-04-03T05:10:10.375Z,3.90
2023-04-03T05:12:39.685Z,3.70
2023-04-03T05:15:14.709Z,3.60
2023-04-03T05:17:56.833Z,3.60
2023-04-03T05:20:26.040Z,3.50
2023-04-03T05:22:54.713Z,3.50
2023-04-03T05:25:27.175Z,3.50
2023-04-03T05:28:00.592Z,3.50
2023-04-03T05:30:29.624Z,3.50
2023-04-03T05:32:59.265Z,3.50
2023-04-03T05:35:45.399Z,3.50
2023-04-03T05:38:19.990Z,3.50
2023-04-03T05:40:52.676Z,3.60
2023-04-03T05:43:21.562Z,3.60
2023-04-03T05:45:53.094Z,3.70
2023-04-03T05:48:24.779Z,3.70
2023-04-03T05:50:57.338Z,3.80
2023-04-03T05:53:34.301Z,3.90
2023-04-03T05:56:07.834Z,3.90
2023-04-03T05:58:41.248Z,4.00
2023-04-03T06:01:10.350Z,4.00
2023-04-03T06:03:40.752Z,4.10
2023-04-03T06:06:15.663Z,4.10
2023-04-03T06:08:47.376Z,4.10
2023-04-03T06:11:22.818Z,4.20
2023-04-03T06:13:51.791Z,4.30
2023-04-03T06:16:20.912Z,4.30
2023-04-03T06:18:49.965Z,4.40
2023-04-03T06:21:19.943Z,4.50
2023-04-03T06:23:48.920Z,4.60
2023-04-03T06:26:18.250Z,4.60
2023-04-03T06:28:51.109Z,4.70
2023-04-03T06:31:20.203Z,4.80
2023-04-03T06:33:48.874Z,4.80
2023-04-03T06:36:22.324Z,4.90
2023-04-03T06:38:51.584Z,5.00
2023-04-03T06:41:22.663Z,5.10
2023-04-03T06:43:53.082Z,5.40
2023-04-03T06:46:24.688Z,5.50
2023-04-03T06:48:55.049Z,6.10
2023-04-03T06:51:26.957Z,6.80
2023-04-03T06:53:59.484Z,7.10
2023-04-03T06:56:31.430Z,7.00
2023-04-03T06:59:01.796Z,6.90
2023-04-03T07:01:34.438Z,7.10
2023-04-03T07:04:03.725Z,7.30
2023-04-03T07:06:37.446Z,8.10
2023-04-03T07:09:09.009Z,9.20
2023-04-03T07:11:44.470Z,10.10
2023-04-03T07:14:17.058Z,10.60
2023-04-03T07:16:48.245Z,10.40
2023-04-03T07:19:19.238Z,10.00
2023-04-03T07:21:48.065Z,9.60
2023-04-03T07:24:17.340Z,9.40
2023-04-03T07:26:46.440Z,10.30
2023-04-03T07:29:16.977Z,11.20
2023-04-03T07:31:46.360Z,11.40
2023-04-03T07:34:15.594Z,11.80
2023-04-03T07:36:44.100Z,12.20
2023-04-03T07:39:17.580Z,12.70
2023-04-03T07:41:46.975Z,13.20
2023-04-03T07:44:17.028Z,13.50
2023-04-03T07:46:46.020Z,13.10
2023-04-03T07:49:16.677Z,12.70
2023-04-03T07:51:45.560Z,12.60
2023-04-03T07:54:15.829Z,12.80
2023-04-03T07:56:45.314Z,12.40
2023-04-03T07:59:14.743Z,11.80
2023-04-03T08:01:48.914Z,11.20
2023-04-03T08:04:19.619Z,10.80
2023-04-03T08:06:51.187Z,10.90
2023-04-03T08:09:24.631Z,10.80
2023-04-03T08:11:56.534Z,10.80
2023-04-03T08:14:27.710Z,10.70
2023-04-03T08:16:57.535Z,11.10
2023-04-03T08:19:27.074Z,11.30
2023-04-03T08:21:57.824Z,10.80
2023-04-03T08:24:26.942Z,10.20
2023-04-03T08:26:55.498Z,9.70
2023-04-03T08:29:24.837Z,9.80
2023-04-03T08:31:57.391Z,9.80
2023-04-03T08:34:28.183Z,10.30
2023-04-03T08:36:57.264Z,11.00
2023-04-03T08:39:25.878Z,11.10
2023-04-03T08:41:54.984Z,11.50
2023-04-03T08:44:30.570Z,11.60
2023-04-03T08:47:14.370Z,11.90
2023-04-03T08:49:49.850Z,12.30
2023-04-03T08:52:24.961Z,12.20
2023-04-03T08:54:59.111Z,11.80
2023-04-03T08:57:34.392Z,12.10
2023-04-03T09:00:10.238Z,11.90
2023-04-03T09:02:48.140Z,11.60
2023-04-03T09:05:20.871Z,11.30
2023-04-03T09:07:59.875Z,11.40
2023-04-03T09:10:34.044Z,11.30
2023-04-03T09:13:09.470Z,11.00
2023-04-03T09:15:39.725Z,10.70
2023-04-03T09:18:21.441Z,10.20
2023-04-03T09:21:04.121Z,10.10
2023-04-03T09:23:42.708Z,9.90
2023-04-03T09:26:19.508Z,9.90
2023-04-03T09:28:51.319Z,10.10
2023-04-03T09:31:25.946Z,10.10
2023-04-03T09:34:00.858Z,10.10
2023-04-03T09:36:47.698Z,10.10
2023-04-03T09:39:20.357Z,9.90
2023-04-03T09:42:02.628Z,9.60
2023-04-03T09:44:37.594Z,9.60
2023-04-03T09:47:32.209Z,9.90
2023-04-03T09:50:24.960Z,10.10
2023-04-03T09:52:54.624Z,10.00
2023-04-03T09:55:32.229Z,10.00
2023-04-03T09:58:06.217Z,9.90
2023-04-03T10:00:38.875Z,9.70
2023-04-03T10:03:28.714Z,9.60
2023-04-03T10:06:04.956Z,9.40
2023-04-03T10:08:41.513Z,9.20
2023-04-03T10:11:17.058Z,9.10
2023-04-03T10:14:00.456Z,9.10
2023-04-03T10:16:40.316Z,9.10
2023-04-03T10:19:34.909Z,9.00
2023-04-03T10:22:19.442Z,9.10
2023-04-03T10:25:04.445Z,9.20
2023-04-03T10:27:49.821Z,9.40
2023-04-03T10:30:46.589Z,9.50
2023-04-03T10:33:37.013Z,9.50
2023-04-03T10:36:18.329Z,9.40
2023-04-03T10:39:06.070Z,9.20
2023-04-03T10:41:50.672Z,8.90
2023-04-03T10:44:41.470Z,8.90
2023-04-03T10:47:18.434Z,8.80
2023-04-03T10:49:59.906Z,8.70
2023-04-03T10:52:43.272Z,8.70
2023-04-03T10:55:31.160Z,8.60
2023-04-03T10:58:06.042Z,8.40
2023-04-03T11:00:42.499Z,8.40
2023-04-03T11:03:19.188Z,8.40
2023-04-03T11:05:51.910Z,8.40
2023-04-03T11:08:32.350Z,8.30
2023-04-03T11:11:07.132Z,8.30
2023-04-03T11:13:42.144Z,8.40
2023-04-03T11:16:12.403Z,8.40
2023-04-03T11:18:48.693Z,8.50
2023-04-03T11:21:23.801Z,8.60
2023-04-03T11:23:55.001Z,8.60
2023-04-03T11:26:31.037Z,8.50
2023-04-03T11:29:04.734Z,8.40
2023-04-03T11:31:48.548Z,8.30
2023-04-03T11:34:33.021Z,8.40
2023-04-03T11:37:04.257Z,8.40
2023-04-03T11:39:39.187Z,8.60
2023-04-03T11:42:38.244Z,8.70
2023-04-03T11:45:39.292Z,9.00
2023-04-03T11:48:23.516Z,9.30
2023-04-03T11:50:54.914Z,9.30
2023-04-03T11:53:40.989Z,9.10
2023-04-03T11:56:33.127Z,9.00
2023-04-03T11:59:28.426Z,9.10
2023-04-03T12:01:59.615Z,9.10
2023-04-03T12:04:33.130Z,8.90
2023-04-03T12:07:26.188Z,9.00
2023-04-03T12:10:31.865Z,8.90
2023-04-03T12:13:05.766Z,9.00
2023-04-03T12:15:58.818Z,9.00
2023-04-03T12:19:04.184Z,8.90
2023-04-03T12:22:23.624Z,9.10
2023-04-03T12:24:55.568Z,9.20
2023-04-03T12:27:44.591Z,9.30
2023-04-03T12:30:26.328Z,9.30
2023-04-03T12:33:26.608Z,9.20
2023-04-03T12:36:08.291Z,9.20
2023-04-03T12:39:06.047Z,9.10
2023-04-03T12:41:42.119Z,9.10
2023-04-03T12:44:45.856Z,9.10
2023-04-03T12:47:34.033Z,9.20
2023-04-03T12:50:06.308Z,9.90
2023-04-03T12:52:42.710Z,10.20
2023-04-03T12:55:30.121Z,10.30
2023-04-03T12:58:20.586Z,10.50
2023-04-03T13:00:53.727Z,10.30
2023-04-03T13:03:28.369Z,10.20
2023-04-03T13:06:05.736Z,9.90
2023-04-03T13:08:35.835Z,9.70
2023-04-03T13:11:14.464Z,9.40
2023-04-03T13:13:57.712Z,9.30
2023-04-03T13:16:27.263Z,9.20
2023-04-03T13:18:57.777Z,9.30
2023-04-03T13:21:31.140Z,9.40
2023-04-03T13:24:14.983Z,9.60
2023-04-03T13:26:48.090Z,9.80
2023-04-03T13:29:31.468Z,9.90
2023-04-03T13:32:04.321Z,9.80
2023-04-03T13:34:41.419Z,9.60
2023-04-03T13:37:25.285Z,9.50
2023-04-03T13:40:04.499Z,9.40
2023-04-03T13:42:40.064Z,9.70
2023-04-03T13:45:30.796Z,10.60
2023-04-03T13:48:24.812Z,11.30
2023-04-03T13:51:02.760Z,11.10
2023-04-03T13:53:38.848Z,10.80
2023-04-03T13:56:12.429Z,10.60
2023-04-03T13:58:43.037Z,10.40
2023-04-03T14:01:21.602Z,10.30
2023-04-03T14:03:57.477Z,10.10
2023-04-03T14:06:31.015Z,10.20
2023-04-03T14:09:06.364Z,10.00
2023-04-03T14:11:37.492Z,10.00
2023-04-03T14:14:16.075Z,9.90
2023-04-03T14:16:50.517Z,10.10
2023-04-03T14:19:24.189Z,10.20
2023-04-03T14:21:54.165Z,10.20
2023-04-03T14:24:26.137Z,10.20
2023-04-03T14:26:58.034Z,10.20
2023-04-03T14:29:27.722Z,10.10
2023-04-03T14:32:11.521Z,9.80
2023-04-03T14:34:47.204Z,9.80
2023-04-03T14:37:21.299Z,9.60
2023-04-03T14:39:53.989Z,9.50
2023-04-03T14:42:27.973Z,9.40
2023-04-03T14:44:58.298Z,9.40
2023-04-03T14:47:32.971Z,9.30
2023-04-03T14:50:10.460Z,9.20
2023-04-03T14:52:40.555Z,9.10
2023-04-03T14:55:14.163Z,9.20
2023-04-03T14:57:44.415Z,9.20
2023-04-03T15:00:23.829Z,9.30
2023-04-03T15:02:55.351Z,9.50
2023-04-03T15:05:26.323Z,9.80
2023-04-03T15:08:01.379Z,10.40
2023-04-03T15:10:34.202Z,10.80
2023-04-03T15:13:02.716Z,10.80
2023-04-03T15:15:32.805Z,10.80
2023-04-03T15:18:03.697Z,10.70
2023-04-03T15:20:34.932Z,10.50
2023-04-03T15:23:05.448Z,10.20
2023-04-03T15:25:46.320Z,10.00
2023-04-03T15:28:25.115Z,9.80
2023-04-03T15:30:54.338Z,9.60
2023-04-03T15:33:24.599Z,9.50
2023-04-03T15:36:02.664Z,9.40
2023-04-03T15:38:42.803Z,9.50
2023-04-03T15:41:17.166Z,9.40
2023-04-03T15:43:47.771Z,10.00
2023-04-03T15:46:16.819Z,10.80
2023-04-03T15:48:46.335Z,10.90
2023-04-03T15:51:18.063Z,10.70
2023-04-03T15:53:50.221Z,10.50
2023-04-03T15:56:25.196Z,10.40
2023-04-03T15:58:53.977Z,10.20
2023-04-03T16:01:26.049Z,10.10
2023-04-03T16:03:57.136Z,9.90
2023-04-03T16:06:30.816Z,9.80
2023-04-03T16:08:59.897Z,9.50
2023-04-03T16:11:39.724Z,9.30
2023-04-03T16:14:09.378Z,9.10
2023-04-03T16:16:41.568Z,9.10
2023-04-03T16:19:12.368Z,9.10
2023-04-03T16:21:42.667Z,9.10
2023-04-03T16:24:16.049Z,9.60
2023-04-03T16:26:52.157Z,9.50
2023-04-03T16:29:23.396Z,9.40
2023-04-03T16:31:53.285Z,9.30
2023-04-03T16:34:22.810Z,9.20
2023-04-03T16:36:54.325Z,9.00
2023-04-03T16:39:27.685Z,8.80
2023-04-03T16:41:59.019Z,8.70
2023-04-03T16:44:27.976Z,8.60
2023-04-03T16:47:01.071Z,8.40
2023-04-03T16:49:34.021Z,8.30
2023-04-03T16:52:02.744Z,8.20
2023-04-03T16:54:33.048Z,8.20
2023-04-03T16:57:04.635Z,8.10
2023-04-03T16:59:33.955Z,8.10
2023-04-03T17:02:06.071Z,8.10
2023-04-03T17:04:35.398Z,8.10
2023-04-03T17:07:08.623Z,8.10
2023-04-03T17:09:40.427Z,8.10
2023-04-03T17:12:13.199Z,8.20
2023-04-03T17:14:45.451Z,8.10
2023-04-03T17:17:15.445Z,8.00
2023-04-03T17:19:47.188Z,7.90
2023-04-03T17:22:16.910Z,7.80
2023-04-03T17:24:47.198Z,7.70
2023-04-03T17:27:18.350Z,7.60
2023-04-03T17:29:48.315Z,7.60
2023-04-03T17:32:17.666Z,7.50
2023-04-03T17:34:49.302Z,7.40
2023-04-03T17:37:20.647Z,7.30
2023-04-03T17:39:51.552Z,7.30
2023-04-03T17:42:27.294Z,7.10
2023-04-03T17:44:58.299Z,7.00
2023-04-03T17:47:30.926Z,6.90
2023-04-03T17:50:01.289Z,6.80
2023-04-03T17:52:32.243Z,6.60
2023-04-03T17:55:01.442Z,6.50
2023-04-03T17:57:31.807Z,6.40
2023-04-03T18:00:01.083Z,6.30
2023-04-03T18:02:42.305Z,6.30
2023-04-03T18:05:12.587Z,6.20
2023-04-03T18:07:42.230Z,6.10
2023-04-03T18:10:14.937Z,6.00
2023-04-03T18:12:45.206Z,5.90
2023-04-03T18:15:16.719Z,5.80
2023-04-03T18:17:46.526Z,5.70
2023-04-03T18:20:18.107Z,5.60
2023-04-03T18:22:46.601Z,5.60
2023-04-03T18:25:20.459Z,5.50
2023-04-03T18:27:51.834Z,5.50
2023-04-03T18:30:22.941Z,5.40
2023-04-03T18:32:51.580Z,5.40
2023-04-03T18:35:29.456Z,5.40
2023-04-03T18:38:01.359Z,5.40
2023-04-03T18:40:30.322Z,5.40
2023-04-03T18:43:02.021Z,5.50
2023-04-03T18:45:32.628Z,5.50
2023-04-03T18:48:01.513Z,5.50
2023-04-03T18:50:32.607Z,5.50
2023-04-03T18:53:03.531Z,5.50
2023-04-03T18:55:35.680Z,5.40
2023-04-03T18:58:05.925Z,5.40
2023-04-03T19:00:37.328Z,5.40
2023-04-03T19:03:08.486Z,5.40
2023-04-03T19:05:38.386Z,5.30
2023-04-03T19:08:08.970Z,5.30
2023-04-03T19:10:38.378Z,5.20
2023-04-03T19:13:12.155Z,5.20
2023-04-03T19:15:40.952Z,5.10
2023-04-03T19:18:11.518Z,5.00
2023-04-03T19:20:41.573Z,4.90
2023-04-03T19:23:10.846Z,4.80
2023-04-03T19:25:43.014Z,4.80
2023-04-03T19:28:17.020Z,4.60
2023-04-03T19:30:48.614Z,4.60
2023-04-03T19:33:22.195Z,4.50
2023-04-03T19:35:52.380Z,4.50
2023-04-03T19:38:21.383Z,4.40
2023-04-03T19:40:50.547Z,4.30
2023-04-03T19:43:20.503Z,4.20
2023-04-03T19:45:50.903Z,4.20
2023-04-03T19:48:20.955Z,4.10
2023-04-03T19:50:54.378Z,4.10
2023-04-03T19:53:29.310Z,4.00
2023-04-03T19:56:04.597Z,3.90
2023-04-03T19:58:44.634Z,3.90
2023-04-03T20:01:16.691Z,3.80
2023-04-03T20:03:46.225Z,3.80
2023-04-03T20:06:18.138Z,3.70
2023-04-03T20:08:50.876Z,3.60
2023-04-03T20:11:20.620Z,3.50
2023-04-03T20:13:52.250Z,3.50
2023-04-03T20:16:31.727Z,3.40
2023-04-03T20:19:01.396Z,3.40
2023-04-03T20:21:31.995Z,3.30
2023-04-03T20:24:03.136Z,3.30
2023-04-03T20:26:33.983Z,3.20
2023-04-03T20:29:08.209Z,3.20
2023-04-03T20:31:40.048Z,3.10
2023-04-03T20:34:11.059Z,3.10
2023-04-03T20:36:48.194Z,3.10
2023-04-03T20:39:19.661Z,3.00
2023-04-03T20:41:49.754Z,3.00
2023-04-03T20:44:25.731Z,2.90
2023-04-03T20:46:54.409Z,2.90
2023-04-03T20:49:26.578Z,2.80
2023-04-03T20:51:55.373Z,2.80
2023-04-03T20:54:24.814Z,2.70
2023-04-03T20:56:56.356Z,2.70
2023-04-03T20:59:26.708Z,2.60
2023-04-03T21:01:57.724Z,2.60
2023-04-03T21:04:35.654Z,2.60
2023-04-03T21:08:00.246Z,2.60
2023-04-03T21:11:26.483Z,2.60
2023-04-03T21:14:52.340Z,2.50
2023-04-03T21:17:21.600Z,2.50
2023-04-03T21:19:53.816Z,2.50
2023-04-03T21:22:27.280Z,2.50
2023-04-03T21:25:00.722Z,2.40
2023-04-03T21:27:33.454Z,2.40
2023-04-03T21:30:07.927Z,2.40
2023-04-03T21:32:39.484Z,2.30
2023-04-03T21:35:10.578Z,2.30
2023-04-03T21:37:39.226Z,2.20
2023-04-03T21:40:10.062Z,2.20
2023-04-03T21:42:38.561Z,2.20
2023-04-03T21:45:10.626Z,2.10
2023-04-03T21:47:42.168Z,2.10
2023-04-03T21:50:15.464Z,2.10
2023-04-03T21:52:44.020Z,2.00
2023-04-03T21:55:18.675Z,2.00
2023-04-03T21:57:58.189Z,2.00
2023-04-03T22:00:28.961Z,2.00
2023-04-03T22:03:10.031Z,1.90
2023-04-03T22:05:41.721Z,1.90
2023-04-03T22:08:14.469Z,1.90
2023-04-03T22:10:44.680Z,1.80
2023-04-03T22:13:17.088Z,1.80
2023-04-03T22:15:50.181Z,1.80
2023-04-03T22:18:19.402Z,1.70
2023-04-03T22:20:53.493Z,1.70
2023-04-03T22:23:22.852Z,1.70
2023-04-03T22:26:05.324Z,1.70
2023-04-03T22:28:40.426Z,1.70
2023-04-03T22:31:09.671Z,1.60
2023-04-03T22:33:39.512Z,1.60
2023-04-03T22:36:14.569Z,1.60
2023-04-03T22:38:47.983Z,1.50
2023-04-03T22:41:17.095Z,1.50
2023-04-03T22:43:46.222Z,1.50
2023-04-03T22:46:18.795Z,1.50
2023-04-03T22:48:48.296Z,1.40
2023-04-03T22:51:18.231Z,1.40
2023-04-03T22:53:47.823Z,1.30
2023-04-03T22:56:16.928Z,1.20
2023-04-03T22:58:48.587Z,1.20
2023-04-03T23:03:52.596Z,1.10
2023-04-03T23:06:23.428Z,1.10
2023-04-03T23:08:54.256Z,1.10
2023-04-03T23:11:24.210Z,1.10
2023-04-03T23:13:52.720Z,1.00
2023-04-03T23:16:29.136Z,1.00
2023-04-03T23:18:58.118Z,1.00
2023-04-03T23:21:31.921Z,0.90
2023-04-03T23:24:00.604Z,0.90
2023-04-03T23:26:30.069Z,0.90
2023-04-03T23:29:01.358Z,0.80
2023-04-03T23:31:30.375Z,0.80
2023-04-03T23:34:02.714Z,0.80
2023-04-03T23:36:34.679Z,0.80
2023-04-03T23:39:05.307Z,0.80
2023-04-03T23:41:34.033Z,0.70
2023-04-03T23:44:05.183Z,0.70
2023-04-03T23:46:35.825Z,0.70
2023-04-03T23:49:07.285Z,0.70
2023-04-03T23:51:38.989Z,0.70
2023-04-03T23:54:11.794Z,0.70
2023-04-03T23:56:43.123Z,0.60
2023-04-03T23:59:17.182Z,0.60
